HEAR

Details ICAO HEAR (AAC)
Name EL ARISH INTL
Region Egypt
Timezone Africa/Cairo (UTC+2.0)
Plans Departing 8
Arriving 10
Stats Elevation 121 ft / 37 m (AMSL)
Location 31.073224° 33.835857°
Runways 1
Magnetic Variation 4.606° E
Sunrise 2018-05-27 02:44:41 UTC / 2018-05-27 04:44:41 Local
Sunset 2018-05-27 16:41:48 UTC / 2018-05-27 18:41:48 Local
Advertisement - Login to hide

Runways

ID Width Length Bearing (true) Bearing (mag) Surface Threshold Offset Overrun Length
16 148 ft / 45 m 9,929 ft / 3,026 m 157.09° 152.48° Asphalt 0 ft / 0 m 200 ft / 61 m
34 148 ft / 45 m 9,929 ft / 3,026 m 337.10° 332.49° Asphalt 0 ft / 0 m 210 ft / 64 m

Map

Weather


0- 5 10 15 20 25 30 35+ Temperature / ° C

Clouds and Precipitation
Forecast for 2018-05-26 18:00 UTC. Updated 5 hours ago

Ground ~20,000 ft ~40,000 ft Winds

METAR

HEAR 262100Z 01002KT CAVOK 23/14 Q1010 NOSIG

TAF

Not found

Frequencies

Ground 121.90 MHz GND
Approach 123.72 MHz RADAR
Tower 121.00 MHz TWR
Approach 125.00 MHz RADAR
Warning: Do not use this data for real-world aviation or navigation. No guarantee of current accuracy is given.